Time;durP1;ratioP1;P1;durP2;ratioP2;P2;SDS_P1;SDS_P2;PMS_P1;PMS_P2;Temp;Humidity;BMP_temperature;BMP_pressure;BME280_temperature;BME280_humidity;BME280_pressure;Samples;Min_cycle;Max_cycle;Signal;HPM_P1;HPM_P2
2021/06/04 00:02:03;;;;;;;3.95;3.47;;;15.90;85.10;;;;;;5077251;28;20025;-78
2021/06/04 00:04:55;;;;;;;4.35;3.20;;;15.90;85.20;;;;;;5078298;28;20045;-78
2021/06/04 00:07:21;;;;;;;3.35;3.05;;;15.90;85.30;;;;;;5077186;28;20017;-77
2021/06/04 00:09:55;;;;;;;4.85;3.63;;;15.90;85.40;;;;;;5077132;28;20090;-78
2021/06/04 00:12:22;;;;;;;3.83;3.20;;;15.80;85.50;;;;;;5075981;28;20020;-78
2021/06/04 00:14:48;;;;;;;4.70;3.03;;;15.80;85.60;;;;;;5076495;28;20079;-77
2021/06/04 00:17:23;;;;;;;5.13;3.10;;;15.80;85.50;;;;;;5075721;28;20474;-77
2021/06/04 00:19:51;;;;;;;4.53;3.20;;;15.80;85.60;;;;;;5059646;28;20056;-77
2021/06/04 00:22:25;;;;;;;5.38;3.10;;;15.80;85.70;;;;;;5092857;28;20020;-78
2021/06/04 00:24:56;;;;;;;4.35;3.22;;;15.80;85.50;;;;;;5077122;28;20031;-78
2021/06/04 00:27:24;;;;;;;5.25;3.33;;;15.80;85.60;;;;;;5076372;28;20055;-78
2021/06/04 00:29:50;;;;;;;5.47;3.00;;;15.80;85.70;;;;;;5076709;28;20351;-78
2021/06/04 00:32:22;;;;;;;3.22;2.92;;;15.80;85.80;;;;;;5076734;28;20024;-78
2021/06/04 00:34:51;;;;;;;3.65;3.28;;;15.80;85.90;;;;;;5076669;28;20047;-78
2021/06/04 00:37:41;;;;;;;4.50;2.92;;;15.80;86.00;;;;;;5042383;28;20479;-78
2021/06/04 00:40:19;;;;;;;;;;;15.80;86.10;;;;;;5092194;28;20025;-80
2021/06/04 00:42:48;;;;;;;3.90;3.00;;;15.70;86.10;;;;;;5076608;28;19950;-78
2021/06/04 00:45:27;;;;;;;3.88;2.95;;;15.70;86.40;;;;;;5083737;28;20025;-78
2021/06/04 00:47:57;;;;;;;4.93;3.20;;;15.70;86.60;;;;;;5056859;28;20028;-78
2021/06/04 00:50:56;;;;;;;;;;;;;;;;;;;;;
2021/06/04 00:53:24;;;;;;;6.07;3.42;;;15.80;87.00;;;;;;5054673;28;20266;-78
2021/06/04 00:56:00;;;;;;;;;;;;;;;;;;;;;
2021/06/04 00:58:47;;;;;;;3.85;2.60;;;15.70;87.20;;;;;;5056206;28;20499;-77
2021/06/04 01:01:21;;;;;;;4.75;3.33;;;15.70;87.20;;;;;;5055008;28;20036;-78
2021/06/04 01:03:55;;;;;;;5.70;3.38;;;15.70;87.20;;;;;;5055090;28;20029;-78
2021/06/04 01:06:30;;;;;;;5.68;3.20;;;15.70;87.30;;;;;;5056351;28;20029;-77
2021/06/04 01:09:20;;;;;;;3.28;2.95;;;15.70;87.60;;;;;;5055914;28;20470;-77
2021/06/04 01:12:38;;;;;;;6.95;3.75;;;15.60;87.70;;;;;;5055962;28;20025;-83
2021/06/04 01:15:29;;;;;;;5.32;2.90;;;15.60;87.80;;;;;;5069133;28;20615;-80
2021/06/04 01:18:02;;;;;;;3.65;2.90;;;15.50;88.00;;;;;;5069848;28;20489;-78
2021/06/04 01:20:52;;;;;;;3.70;3.40;;;15.50;88.10;;;;;;5076156;28;20037;-78
2021/06/04 01:23:40;;;;;;;5.82;3.03;;;15.40;88.10;;;;;;5074549;28;20036;-78
2021/06/04 01:26:19;;;;;;;4.07;3.10;;;15.40;88.60;;;;;;5074406;28;20335;-78
2021/06/04 01:28:51;;;;;;;5.25;3.08;;;15.40;88.60;;;;;;5075472;28;20049;-79
2021/06/04 01:31:46;;;;;;;4.47;3.25;;;15.40;88.70;;;;;;5075958;28;20016;-77
2021/06/04 01:34:35;;;;;;;3.40;3.10;;;15.30;88.80;;;;;;5074608;28;20450;-83
2021/06/04 01:37:18;;;;;;;4.47;3.07;;;15.30;89.00;;;;;;5067226;28;20063;-78
2021/06/04 01:39:51;;;;;;;5.75;3.65;;;15.30;89.10;;;;;;5075527;28;20017;-78
2021/06/04 01:42:24;;;;;;;3.72;3.30;;;15.30;89.20;;;;;;5074591;28;20409;-78
2021/06/04 01:45:08;;;;;;;4.40;3.47;;;15.20;89.20;;;;;;5075050;28;20035;-75
2021/06/04 01:47:43;;;;;;;3.85;3.55;;;15.20;89.20;;;;;;5091453;28;20461;-78
2021/06/04 01:50:34;;;;;;;5.10;3.30;;;15.20;89.40;;;;;;5073945;28;20112;-78
2021/06/04 01:53:11;;;;;;;4.72;3.35;;;15.20;89.40;;;;;;5070415;28;20075;-78
2021/06/04 01:55:42;;;;;;;3.55;3.10;;;15.20;89.80;;;;;;5075158;28;20021;-78
2021/06/04 01:58:39;;;;;;;5.18;3.42;;;15.20;90.00;;;;;;5090980;28;20034;-78
2021/06/04 02:01:23;;;;;;;3.97;3.38;;;15.20;90.00;;;;;;5074090;28;20025;-78
2021/06/04 02:03:53;;;;;;;6.18;3.70;;;15.20;90.10;;;;;;5074915;28;20115;-77
2021/06/04 02:06:27;;;;;;;;;;;15.20;90.00;;;;;;5075134;28;20104;-77
2021/06/04 02:09:04;;;;;;;4.72;3.35;;;15.20;90.00;;;;;;5073834;28;19944;-83
2021/06/04 02:11:33;;;;;;;4.07;3.00;;;15.10;90.30;;;;;;5075093;28;20023;-76
2021/06/04 02:14:03;;;;;;;4.10;3.50;;;15.10;90.10;;;;;;5073838;28;20033;-77
2021/06/04 02:17:17;;;;;;;;;;;;;;;;;;;;;
2021/06/04 02:19:56;;;;;;;3.50;3.20;;;15.10;90.30;;;;;;5032938;28;19905;-77
2021/06/04 02:22:35;;;;;;;5.78;3.35;;;15.10;90.30;;;;;;5032661;28;20029;-77
2021/06/04 02:25:15;;;;;;;3.60;3.30;;;15.10;90.30;;;;;;5062411;28;20036;-77
2021/06/04 02:27:53;;;;;;;5.57;3.30;;;15.10;90.40;;;;;;5089445;28;20497;-77
2021/06/04 02:30:28;;;;;;;60.47;5.55;;;15.10;90.50;;;;;;5089957;28;20257;-77
2021/06/04 02:33:08;;;;;;;6.32;3.50;;;15.10;90.60;;;;;;5074361;28;20033;-77
2021/06/04 02:35:51;;;;;;;7.28;3.22;;;15.10;90.50;;;;;;5074297;28;20455;-79
2021/06/04 02:38:31;;;;;;;3.28;3.00;;;15.10;90.60;;;;;;5074774;28;20150;-77
2021/06/04 02:41:04;;;;;;;;;;;15.10;90.50;;;;;;5090313;28;20421;-77
2021/06/04 02:43:48;;;;;;;4.45;3.60;;;15.10;90.40;;;;;;5073672;28;19915;-76
2021/06/04 02:46:20;;;;;;;3.90;3.50;;;15.10;90.50;;;;;;5074080;28;20021;-78
2021/06/04 02:48:49;;;;;;;5.22;3.38;;;15.10;90.60;;;;;;5074168;28;20032;-77
2021/06/04 02:51:30;;;;;;;6.43;3.40;;;15.20;90.50;;;;;;5073825;28;20016;-78
2021/06/04 02:54:05;;;;;;;4.00;3.60;;;15.20;90.50;;;;;;5074060;28;20025;-77
2021/06/04 02:56:37;;;;;;;3.72;3.42;;;15.20;90.50;;;;;;5073914;28;20413;-77
2021/06/04 02:59:15;;;;;;;4.03;3.58;;;15.20;90.40;;;;;;5073900;28;20028;-77
2021/06/04 03:02:04;;;;;;;3.50;3.20;;;15.20;90.40;;;;;;5089483;28;20044;-77
2021/06/04 03:05:02;;;;;;;4.88;3.30;;;15.20;90.80;;;;;;5073919;28;20033;-76
2021/06/04 03:07:32;;;;;;;3.53;3.15;;;15.20;90.60;;;;;;5073772;28;20532;-81
2021/06/04 03:10:02;;;;;;;7.18;3.55;;;15.30;90.60;;;;;;5073729;28;20032;-77
2021/06/04 03:12:31;;;;;;;;;;;15.30;90.60;;;;;;5074355;28;20074;-78
2021/06/04 03:15:09;;;;;;;5.05;3.70;;;15.20;90.70;;;;;;5073254;28;19912;-78
2021/06/04 03:17:44;;;;;;;5.25;3.67;;;15.30;90.70;;;;;;5089393;28;20149;-77
2021/06/04 03:20:43;;;;;;;4.80;3.45;;;15.30;90.80;;;;;;5073874;28;20028;-77
2021/06/04 03:23:36;;;;;;;4.93;3.10;;;15.30;90.60;;;;;;5074358;28;20025;-83
2021/06/04 03:26:10;;;;;;;5.55;3.78;;;15.30;90.70;;;;;;5073607;28;20024;-78
2021/06/04 03:28:37;;;;;;;6.68;3.35;;;15.40;90.50;;;;;;5088652;28;20048;-78
2021/06/04 03:31:07;;;;;;;4.97;4.20;;;15.40;90.70;;;;;;5072321;28;20044;-84
2021/06/04 03:33:53;;;;;;;5.07;3.80;;;15.40;90.70;;;;;;5073581;28;20039;-79
2021/06/04 03:36:23;;;;;;;3.78;3.40;;;15.40;90.80;;;;;;5073900;28;20035;-78
2021/06/04 03:38:50;;;;;;;3.80;3.40;;;15.30;90.80;;;;;;5089445;28;20462;-78
2021/06/04 03:41:28;;;;;;;4.13;3.58;;;15.30;91.00;;;;;;5073790;28;20082;-78
2021/06/04 03:44:15;;;;;;;7.05;4.00;;;15.40;91.00;;;;;;5073080;28;20039;-78
2021/06/04 03:46:46;;;;;;;4.97;3.92;;;15.40;91.00;;;;;;5073465;28;20115;-77
2021/06/04 03:49:17;;;;;;;6.38;3.65;;;15.40;91.00;;;;;;5073768;28;20032;-78
2021/06/04 03:51:52;;;;;;;4.00;3.53;;;15.60;90.90;;;;;;5073447;28;20021;-77
2021/06/04 03:54:26;;;;;;;3.88;3.58;;;15.70;90.90;;;;;;5073253;28;20044;-78
2021/06/04 03:56:53;;;;;;;7.45;3.80;;;15.80;90.80;;;;;;5073657;28;20031;-79
2021/06/04 03:59:43;;;;;;;4.28;3.50;;;15.90;90.60;;;;;;5073520;28;20390;-78
2021/06/04 04:02:27;;;;;;;5.47;3.30;;;16.00;90.60;;;;;;5073221;28;20036;-78
2021/06/04 04:04:56;;;;;;;5.07;3.53;;;16.10;90.60;;;;;;5073309;28;20032;-78
2021/06/04 04:07:38;;;;;;;6.18;3.80;;;16.10;90.40;;;;;;5088703;28;20390;-78
2021/06/04 04:10:10;;;;;;;5.72;3.70;;;16.20;90.30;;;;;;5088892;28;20024;-79
2021/06/04 04:12:36;;;;;;;7.45;3.67;;;16.40;89.80;;;;;;5072898;28;20440;-77
2021/06/04 04:15:17;;;;;;;5.57;3.45;;;16.50;89.20;;;;;;5072969;28;20048;-78
2021/06/04 04:17:54;;;;;;;6.28;3.60;;;16.50;89.20;;;;;;5073351;28;20052;-78
2021/06/04 04:20:30;;;;;;;7.85;4.30;;;16.50;88.80;;;;;;5073055;28;20031;-78
2021/06/04 04:22:57;;;;;;;4.53;3.60;;;16.50;88.50;;;;;;5073334;28;20020;-77
2021/06/04 04:25:28;;;;;;;5.30;3.00;;;16.50;88.60;;;;;;5072985;28;20056;-82
2021/06/04 04:27:53;;;;;;;3.97;3.58;;;16.50;89.00;;;;;;5088478;28;20128;-79
2021/06/04 04:30:20;;;;;;;4.03;3.30;;;16.60;88.60;;;;;;5072993;28;20121;-77
2021/06/04 04:32:46;;;;;;;4.80;3.38;;;16.60;88.80;;;;;;5076676;28;20548;-76
2021/06/04 04:35:23;;;;;;;3.92;3.53;;;16.60;89.00;;;;;;5076484;28;20016;-76
2021/06/04 04:37:49;;;;;;;3.60;3.28;;;16.60;88.50;;;;;;5076435;28;20032;-77
2021/06/04 04:40:16;;;;;;;5.88;3.38;;;16.60;88.60;;;;;;5075378;28;20059;-77
2021/06/04 04:42:46;;;;;;;5.25;3.47;;;16.60;89.50;;;;;;5086593;28;20437;-77
2021/06/04 04:45:17;;;;;;;3.58;3.17;;;16.60;88.70;;;;;;5055747;28;20052;-77
2021/06/04 04:47:43;;;;;;;4.45;3.40;;;16.70;89.10;;;;;;5056294;28;20475;-77
2021/06/04 04:50:13;;;;;;;4.57;3.30;;;16.80;88.90;;;;;;5058455;28;20382;-77
2021/06/04 04:52:45;;;;;;;4.93;3.28;;;16.80;88.20;;;;;;5068260;28;20042;-76
2021/06/04 04:55:18;;;;;;;4.38;3.28;;;16.90;88.30;;;;;;5075094;28;20025;-77
2021/06/04 04:57:45;;;;;;;4.20;3.42;;;16.90;87.80;;;;;;5072574;28;20071;-77
2021/06/04 05:00:14;;;;;;;3.25;3.03;;;17.00;87.10;;;;;;5061598;28;20770;-78
2021/06/04 05:02:44;;;;;;;4.95;3.72;;;16.90;87.20;;;;;;5063896;28;20125;-78
2021/06/04 05:05:20;;;;;;;3.92;3.42;;;17.00;86.80;;;;;;5054871;28;20032;-80
2021/06/04 05:07:51;;;;;;;7.25;4.05;;;17.00;87.20;;;;;;5056368;28;20082;-76
2021/06/04 05:10:19;;;;;;;4.00;3.60;;;17.10;86.80;;;;;;5054755;28;20394;-75
2021/06/04 05:12:50;;;;;;;6.20;4.25;;;17.10;86.50;;;;;;5055886;28;20048;-79
2021/06/04 05:15:39;;;;;;;5.78;4.25;;;17.20;86.10;;;;;;5038580;28;20021;-80
2021/06/04 05:18:15;;;;;;;6.60;3.95;;;17.20;86.40;;;;;;5039993;28;20052;-79
2021/06/04 05:20:46;;;;;;;6.43;3.45;;;17.30;85.80;;;;;;5053364;28;20114;-79
2021/06/04 05:23:14;;;;;;;4.35;3.55;;;17.30;85.50;;;;;;5037826;28;20479;-80
2021/06/04 05:25:45;;;;;;;5.53;3.45;;;17.40;85.80;;;;;;5071852;28;20150;-80
2021/06/04 05:28:14;;;;;;;4.50;3.38;;;17.40;85.40;;;;;;5075101;28;20055;-83
2021/06/04 05:30:43;;;;;;;5.10;3.42;;;17.40;85.60;;;;;;5091336;28;20117;-83
2021/06/04 05:33:12;;;;;;;6.38;3.30;;;17.50;85.30;;;;;;5075525;28;20451;-78
2021/06/04 05:35:41;;;;;;;4.30;2.80;;;17.50;85.10;;;;;;5088728;28;20482;-79
2021/06/04 05:38:08;;;;;;;5.47;3.47;;;17.60;85.80;;;;;;5084480;28;20463;-81
2021/06/04 05:40:38;;;;;;;5.50;3.10;;;17.70;85.10;;;;;;5055559;28;20033;-81
2021/06/04 05:43:05;;;;;;;5.45;3.33;;;17.70;84.90;;;;;;5055250;28;20060;-79
2021/06/04 05:45:40;;;;;;;4.50;2.90;;;17.80;84.70;;;;;;5054808;28;20398;-82
2021/06/04 05:48:14;;;;;;;3.97;3.30;;;17.90;85.00;;;;;;5070820;28;20064;-80
2021/06/04 05:50:42;;;;;;;8.52;3.85;;;17.90;84.90;;;;;;5090984;28;20032;-80
2021/06/04 05:53:15;;;;;;;7.50;3.33;;;18.10;83.90;;;;;;5075076;28;20032;-80
2021/06/04 05:55:53;;;;;;;4.47;3.05;;;18.10;83.60;;;;;;5075290;28;20020;-81
2021/06/04 05:58:28;;;;;;;5.55;3.30;;;18.10;84.20;;;;;;5075109;28;20096;-80
2021/06/04 06:00:58;;;;;;;4.82;2.90;;;18.10;84.30;;;;;;5074030;28;20048;-79
2021/06/04 06:03:36;;;;;;;6.07;3.30;;;18.30;84.30;;;;;;5074941;28;20024;-80
2021/06/04 06:06:20;;;;;;;5.40;3.15;;;18.40;83.50;;;;;;5073993;28;20040;-80
2021/06/04 06:08:49;;;;;;;5.50;3.15;;;18.50;82.40;;;;;;5073516;28;20033;-81
2021/06/04 06:11:25;;;;;;;3.50;3.20;;;18.40;82.50;;;;;;5074786;28;20033;-80
2021/06/04 06:14:13;;;;;;;6.75;3.40;;;18.40;82.90;;;;;;5057195;28;20029;-80
2021/06/04 06:16:47;;;;;;;4.88;3.50;;;18.50;82.90;;;;;;5073894;28;20028;-81
2021/06/04 06:19:32;;;;;;;4.07;3.35;;;18.60;82.30;;;;;;5089846;28;20028;-81
2021/06/04 06:22:05;;;;;;;4.53;3.15;;;18.60;82.20;;;;;;5089387;28;20028;-81
2021/06/04 06:24:33;;;;;;;4.13;3.30;;;18.60;82.90;;;;;;5074190;28;20074;-80
2021/06/04 06:27:01;;;;;;;4.68;3.30;;;18.70;83.00;;;;;;5073371;28;20041;-79
2021/06/04 06:29:37;;;;;;;5.88;3.83;;;18.70;82.80;;;;;;5074199;28;20432;-80
2021/06/04 06:32:05;;;;;;;5.22;3.42;;;18.70;82.20;;;;;;5072828;28;20116;-80
2021/06/04 06:34:31;;;;;;;3.80;3.10;;;18.80;80.70;;;;;;5089700;28;20024;-83
2021/06/04 06:36:58;;;;;;;3.97;2.97;;;18.80;81.90;;;;;;5072729;28;20028;-83
2021/06/04 06:39:29;;;;;;;3.65;3.08;;;18.90;80.20;;;;;;5073880;28;20036;-82
2021/06/04 06:42:00;;;;;;;4.22;3.42;;;19.10;79.50;;;;;;5073741;28;20025;-79
2021/06/04 06:44:34;;;;;;;;;;;19.10;79.50;;;;;;5073103;28;20059;-85
2021/06/04 06:47:00;;;;;;;6.28;3.60;;;19.10;78.70;;;;;;5073327;28;19919;-78
2021/06/04 06:49:29;;;;;;;8.90;3.53;;;19.00;79.60;;;;;;5073729;28;20471;-79
2021/06/04 06:51:55;;;;;;;10.95;3.22;;;18.90;80.70;;;;;;5073627;28;20027;-81
2021/06/04 06:54:25;;;;;;;6.07;3.20;;;19.00;81.10;;;;;;5073064;28;20020;-81
2021/06/04 06:56:53;;;;;;;5.57;3.30;;;19.00;80.90;;;;;;5055776;28;20035;-79
2021/06/04 06:59:22;;;;;;;3.78;3.15;;;19.10;80.10;;;;;;5073446;28;20410;-79
2021/06/04 07:01:48;;;;;;;8.55;3.40;;;19.10;79.90;;;;;;5073677;28;20462;-79
2021/06/04 07:04:19;;;;;;;7.13;3.83;;;19.20;79.40;;;;;;5089288;28;20029;-77
2021/06/04 07:06:52;;;;;;;5.53;3.60;;;19.20;78.20;;;;;;5089231;28;20477;-76
2021/06/04 07:09:30;;;;;;;6.47;3.58;;;19.20;78.50;;;;;;5072215;28;20041;-89
2021/06/04 07:11:56;;;;;;;4.55;3.60;;;19.20;78.50;;;;;;5073543;28;20024;-78
2021/06/04 07:14:33;;;;;;;4.45;3.45;;;19.30;77.60;;;;;;5073301;28;20025;-77
2021/06/04 07:17:00;;;;;;;5.45;3.28;;;19.20;77.80;;;;;;5072778;28;20025;-81
2021/06/04 07:19:28;;;;;;;3.45;3.10;;;19.20;77.20;;;;;;5073434;28;20493;-77
2021/06/04 07:22:01;;;;;;;4.05;3.13;;;19.20;76.50;;;;;;5089153;28;20501;-83
2021/06/04 07:24:27;;;;;;;8.02;3.25;;;19.10;76.80;;;;;;5073391;28;20477;-80
2021/06/04 07:26:56;;;;;;;7.53;3.30;;;19.10;76.80;;;;;;5072948;28;20150;-76
2021/06/04 07:29:23;;;;;;;4.25;2.90;;;19.10;76.00;;;;;;5073308;28;20108;-87
2021/06/04 07:31:50;;;;;;;4.75;3.15;;;19.00;76.00;;;;;;5072517;28;20021;-81
2021/06/04 07:34:17;;;;;;;6.40;3.28;;;19.00;75.10;;;;;;5089122;28;20109;-81
2021/06/04 07:36:53;;;;;;;5.97;3.30;;;19.00;75.30;;;;;;5073359;28;20020;-86
2021/06/04 07:39:23;;;;;;;4.97;3.00;;;19.00;76.30;;;;;;5072962;28;20025;-83
2021/06/04 07:41:49;;;;;;;4.50;3.42;;;18.90;77.20;;;;;;5088319;28;20027;-77
2021/06/04 07:44:16;;;;;;;3.35;3.08;;;19.00;77.60;;;;;;5073082;28;20532;-80
2021/06/04 07:46:43;;;;;;;4.63;2.90;;;19.00;78.00;;;;;;5071292;28;20496;-77
2021/06/04 07:49:10;;;;;;;5.22;3.28;;;19.10;77.50;;;;;;5073029;28;20032;-80
2021/06/04 07:51:48;;;;;;;4.32;3.13;;;19.10;76.30;;;;;;5073189;28;20017;-85
2021/06/04 07:54:25;;;;;;;4.65;3.10;;;19.20;74.80;;;;;;5073322;28;20017;-85
2021/06/04 07:56:51;;;;;;;8.38;3.47;;;19.20;73.40;;;;;;5088571;28;20421;-85
2021/06/04 07:59:17;;;;;;;4.32;3.00;;;19.30;72.50;;;;;;5073271;28;20377;-79
2021/06/04 08:01:46;;;;;;;3.78;3.03;;;19.30;71.90;;;;;;5071581;28;20094;-82
2021/06/04 08:04:17;;;;;;;6.47;3.10;;;19.40;71.00;;;;;;5068943;28;20386;-82
2021/06/04 08:06:46;;;;;;;6.32;2.65;;;19.40;70.30;;;;;;5092496;28;20028;-80
2021/06/04 08:09:16;;;;;;;4.90;3.47;;;19.40;71.00;;;;;;5075709;28;20364;-69
2021/06/04 08:11:58;;;;;;;;;;;19.50;70.40;;;;;;5075808;28;20457;-71
2021/06/04 08:14:26;;;;;;;4.47;2.70;;;19.50;69.80;;;;;;5076624;28;20373;-81
2021/06/04 08:16:58;;;;;;;2.78;2.30;;;19.60;69.70;;;;;;5075845;28;20105;-84
2021/06/04 08:19:25;;;;;;;10.38;4.25;;;19.60;69.90;;;;;;5076473;28;20085;-80
2021/06/04 08:21:54;;;;;;;29.65;8.57;;;19.80;68.30;;;;;;5076605;28;20024;-78
2021/06/04 08:24:25;;;;;;;10.93;2.88;;;19.80;68.90;;;;;;5076159;28;20020;-84
2021/06/04 08:26:54;;;;;;;5.97;2.70;;;19.90;66.00;;;;;;5074781;28;20024;-83
2021/06/04 08:29:21;;;;;;;5.35;2.38;;;20.10;61.30;;;;;;5074376;28;20028;-77
2021/06/04 08:31:46;;;;;;;8.38;2.00;;;20.10;61.20;;;;;;5073115;28;20044;-70
2021/06/04 08:34:13;;;;;;;4.72;2.20;;;20.20;59.60;;;;;;5074183;28;20518;-70
2021/06/04 08:36:57;;;;;;;3.47;2.20;;;20.30;59.10;;;;;;5074154;28;20146;-77
2021/06/04 08:39:30;;;;;;;2.40;2.10;;;20.30;57.30;;;;;;5075549;28;20033;-82
2021/06/04 08:42:21;;;;;;;8.90;2.47;;;20.30;57.10;;;;;;5074629;28;20036;-73
2021/06/04 08:45:21;;;;;;;6.55;4.40;;;20.40;55.10;;;;;;5075817;28;20046;-88
2021/06/04 08:47:53;;;;;;;8.30;3.97;;;20.50;55.20;;;;;;5074574;28;20171;-78
2021/06/04 08:50:38;;;;;;;8.32;2.15;;;20.60;55.10;;;;;;5076012;28;20032;-78
2021/06/04 08:53:28;;;;;;;4.20;2.22;;;20.60;55.90;;;;;;5074720;28;20027;-79
2021/06/04 08:56:03;;;;;;;1.90;1.80;;;20.70;56.20;;;;;;5075582;28;20024;-85
2021/06/04 08:58:59;;;;;;;3.35;1.80;;;20.80;55.40;;;;;;5075886;28;20043;-81
2021/06/04 09:01:53;;;;;;;4.13;2.20;;;20.80;55.20;;;;;;5075735;28;20058;-83
2021/06/04 09:04:52;;;;;;;8.00;2.28;;;20.80;54.90;;;;;;5074463;28;20086;-78
2021/06/04 09:07:35;;;;;;;4.88;1.92;;;20.80;53.50;;;;;;5074890;28;20021;-80
2021/06/04 09:10:26;;;;;;;3.60;1.80;;;20.90;53.70;;;;;;5075798;28;20090;-77
2021/06/04 09:13:14;;;;;;;8.82;6.22;;;21.10;54.10;;;;;;5075509;28;20466;-89
2021/06/04 09:15:46;;;;;;;5.43;2.33;;;21.20;53.30;;;;;;5075038;28;20028;-85
